Time,TemperatureF,DewpointF,PressureIn,WindDirection,WindDirectionDegrees,WindSpeedMPH,WindSpeedGustMPH,Humidity,HourlyPrecipIn,Conditions,Clouds,dailyrainin,SoftwareType,DateUTC
2013-02-15 00:05:00,38.2,28.0,30.22,NE,53,4.0,-999.0,67,-99.99,,,0.00,weatherlink.com 1.10,2013-02-15 05:05:00,
2013-02-15 00:20:00,38.3,28.0,30.22,NE,46,4.0,-999.0,67,-99.99,,,0.00,weatherlink.com 1.10,2013-02-15 05:20:00,
2013-02-15 00:35:00,38.3,28.0,30.22,NE,34,7.0,-999.0,67,-99.99,,,0.00,weatherlink.com 1.10,2013-02-15 05:35:00,
2013-02-15 00:50:00,38.3,28.0,30.22,North,5,7.0,-999.0,67,-99.99,,,0.00,weatherlink.com 1.10,2013-02-15 05:50:00,
2013-02-15 01:04:00,38.2,28.0,30.21,NE,34,5.0,-999.0,67,-99.99,,,0.00,weatherlink.com 1.10,2013-02-15 06:04:00,
2013-02-15 01:20:00,37.9,28.0,30.21,NNE,28,2.0,-999.0,68,-99.99,,,0.00,weatherlink.com 1.10,2013-02-15 06:20:00,
2013-02-15 01:35:00,38.0,28.0,30.21,NE,38,5.0,-999.0,68,-99.99,,,0.00,weatherlink.com 1.10,2013-02-15 06:35:00,
2013-02-15 01:50:00,37.9,29.0,30.21,NE,56,5.0,-999.0,69,-99.99,,,0.00,weatherlink.com 1.10,2013-02-15 06:50:00,
2013-02-15 02:05:00,38.1,29.0,30.20,NE,44,5.0,-999.0,69,-99.99,,,0.00,weatherlink.com 1.10,2013-02-15 07:05:00,
2013-02-15 02:20:00,38.1,29.0,30.20,NNE,30,3.0,-999.0,69,-99.99,,,0.00,weatherlink.com 1.10,2013-02-15 07:20:00,
2013-02-15 02:35:00,38.0,29.0,30.20,NE,39,2.0,-999.0,69,-99.99,,,0.00,weatherlink.com 1.10,2013-02-15 07:35:00,
2013-02-15 02:50:00,37.7,29.0,30.20,NE,36,1.0,-999.0,70,-99.99,,,0.00,weatherlink.com 1.10,2013-02-15 07:50:00,
2013-02-15 03:05:00,37.5,29.0,30.20,NE,44,0.0,-999.0,70,-99.99,,,0.00,weatherlink.com 1.10,2013-02-15 08:05:00,
2013-02-15 03:20:00,37.3,29.0,30.21,NE,44,0.0,-999.0,71,-99.99,,,0.00,weatherlink.com 1.10,2013-02-15 08:20:00,
2013-02-15 03:35:00,36.9,29.0,30.21,NE,45,0.0,-999.0,72,-99.99,,,0.00,weatherlink.com 1.10,2013-02-15 08:35:00,
2013-02-15 03:50:00,36.5,29.0,30.21,NE,45,0.0,-999.0,73,-99.99,,,0.00,weatherlink.com 1.10,2013-02-15 08:50:00,
2013-02-15 04:05:00,37.0,29.0,30.20,NE,45,0.0,-999.0,72,-99.99,,,0.00,weatherlink.com 1.10,2013-02-15 09:05:00,
2013-02-15 04:20:00,37.1,29.0,30.20,NE,45,1.0,-999.0,72,-99.99,,,0.00,weatherlink.com 1.10,2013-02-15 09:20:00,
2013-02-15 04:35:00,37.2,29.0,30.20,NE,45,0.0,-999.0,72,-99.99,,,0.00,weatherlink.com 1.10,2013-02-15 09:35:00,
2013-02-15 04:50:00,37.2,29.0,30.20,NE,47,0.0,-999.0,72,-99.99,,,0.00,weatherlink.com 1.10,2013-02-15 09:50:00,
2013-02-15 05:05:00,37.4,29.0,30.20,NE,47,0.0,-999.0,72,-99.99,,,0.00,weatherlink.com 1.10,2013-02-15 10:05:00,
2013-02-15 05:20:00,37.5,29.0,30.20,NE,47,0.0,-999.0,72,-99.99,,,0.00,weatherlink.com 1.10,2013-02-15 10:20:00,
2013-02-15 05:35:00,37.5,29.0,30.20,NE,47,0.0,-999.0,72,-99.99,,,0.00,weatherlink.com 1.10,2013-02-15 10:35:00,
2013-02-15 05:50:00,37.3,29.0,30.20,NE,47,0.0,-999.0,72,-99.99,,,0.00,weatherlink.com 1.10,2013-02-15 10:50:00,
2013-02-15 06:05:00,36.9,29.0,30.21,NE,47,0.0,-999.0,72,-99.99,,,0.00,weatherlink.com 1.10,2013-02-15 11:05:00,
2013-02-15 06:20:00,36.2,28.0,30.22,NE,47,0.0,-999.0,73,-99.99,,,0.00,weatherlink.com 1.10,2013-02-15 11:20:00,
2013-02-15 06:35:00,36.4,29.0,30.22,SSE,166,0.0,-999.0,74,-99.99,,,0.00,weatherlink.com 1.10,2013-02-15 11:35:00,
2013-02-15 06:50:00,36.6,28.0,30.22,SSE,167,0.0,-999.0,72,-99.99,,,0.00,weatherlink.com 1.10,2013-02-15 11:50:00,
2013-02-15 07:05:00,36.6,29.0,30.22,SSE,167,0.0,-999.0,73,-99.99,,,0.00,weatherlink.com 1.10,2013-02-15 12:05:00,
2013-02-15 07:20:00,36.7,29.0,30.23,South,169,0.0,-999.0,73,-99.99,,,0.00,weatherlink.com 1.10,2013-02-15 12:20:00,
2013-02-15 07:35:00,37.0,29.0,30.22,South,169,0.0,-999.0,72,-99.99,,,0.00,weatherlink.com 1.10,2013-02-15 12:35:00,
2013-02-15 07:50:00,37.6,29.0,30.23,South,169,0.0,-999.0,71,-99.99,,,0.00,weatherlink.com 1.10,2013-02-15 12:50:00,
2013-02-15 08:05:00,37.5,29.0,30.23,South,169,0.0,-999.0,71,-99.99,,,0.00,weatherlink.com 1.10,2013-02-15 13:05:00,
2013-02-15 08:20:00,37.3,29.0,30.23,South,173,0.0,-999.0,71,-99.99,,,0.00,weatherlink.com 1.10,2013-02-15 13:20:00,
2013-02-15 08:35:00,37.4,29.0,30.23,South,186,0.0,-999.0,71,-99.99,,,0.00,weatherlink.com 1.10,2013-02-15 13:35:00,
2013-02-15 08:50:00,37.4,28.0,30.23,South,182,1.0,-999.0,70,-99.99,,,0.00,weatherlink.com 1.10,2013-02-15 13:50:00,
2013-02-15 09:05:00,38.0,28.0,30.23,NNE,22,2.0,-999.0,68,-99.99,,,0.00,weatherlink.com 1.10,2013-02-15 14:05:00,
2013-02-15 09:20:00,38.8,28.0,30.23,NNE,33,2.0,-999.0,66,-99.99,,,0.00,weatherlink.com 1.10,2013-02-15 14:20:00,
2013-02-15 09:35:00,39.7,28.0,30.23,NNE,22,3.0,-999.0,63,-99.99,,,0.00,weatherlink.com 1.10,2013-02-15 14:35:00,
2013-02-15 09:50:00,40.2,28.0,30.22,NNE,26,0.0,-999.0,62,-99.99,,,0.00,weatherlink.com 1.10,2013-02-15 14:50:00,
2013-02-15 10:05:00,40.5,28.0,30.22,North,5,0.0,-999.0,62,-99.99,,,0.00,weatherlink.com 1.10,2013-02-15 15:05:00,
2013-02-15 10:20:00,40.9,28.0,30.22,NW,313,1.0,-999.0,60,-99.99,,,0.00,weatherlink.com 1.10,2013-02-15 15:20:00,
2013-02-15 10:35:00,41.0,29.0,30.22,NNE,33,1.0,-999.0,62,-99.99,,,0.00,weatherlink.com 1.10,2013-02-15 15:35:00,
2013-02-15 10:50:00,42.0,29.0,30.22,NNW,341,1.0,-999.0,60,-99.99,,,0.00,weatherlink.com 1.10,2013-02-15 15:50:00,
2013-02-15 11:05:00,42.9,29.0,30.22,SSW,209,0.0,-999.0,59,-99.99,,,0.00,weatherlink.com 1.10,2013-02-15 16:05:00,
2013-02-15 11:20:00,44.1,30.0,30.22,SSW,208,1.0,-999.0,57,-99.99,,,0.00,weatherlink.com 1.10,2013-02-15 16:20:00,
2013-02-15 11:35:00,44.8,30.0,30.21,SSW,208,4.0,-999.0,56,-99.99,,,0.00,weatherlink.com 1.10,2013-02-15 16:35:00,
2013-02-15 11:50:00,45.6,30.0,30.21,NW,320,3.0,-999.0,54,-99.99,,,0.00,weatherlink.com 1.10,2013-02-15 16:50:00,
2013-02-15 12:05:00,45.7,29.0,30.20,SSW,212,7.0,-999.0,53,-99.99,,,0.00,weatherlink.com 1.10,2013-02-15 17:05:00,
2013-02-15 12:20:00,46.7,29.0,30.19,SSW,199,6.0,-999.0,51,-99.99,,,0.00,weatherlink.com 1.10,2013-02-15 17:20:00,
2013-02-15 12:35:00,47.0,29.0,30.18,SW,215,10.0,-999.0,49,-99.99,,,0.00,weatherlink.com 1.10,2013-02-15 17:35:00,
2013-02-15 12:50:00,47.8,29.0,30.17,SW,215,7.0,-999.0,48,-99.99,,,0.00,weatherlink.com 1.10,2013-02-15 17:50:00,
2013-02-15 13:05:00,47.7,28.0,30.17,SSW,205,5.0,-999.0,46,-99.99,,,0.00,weatherlink.com 1.10,2013-02-15 18:05:00,
2013-02-15 13:20:00,47.7,28.0,30.16,SW,233,3.0,-999.0,46,-99.99,,,0.00,weatherlink.com 1.10,2013-02-15 18:20:00,
2013-02-15 13:35:00,46.9,27.0,30.15,SW,217,4.0,-999.0,46,-99.99,,,0.00,weatherlink.com 1.10,2013-02-15 18:35:00,
2013-02-15 13:50:00,47.8,27.0,30.14,SSW,207,4.0,-999.0,44,-99.99,,,0.00,weatherlink.com 1.10,2013-02-15 18:50:00,
2013-02-15 14:05:00,47.2,27.0,30.14,WNW,285,6.0,-999.0,45,-99.99,,,0.00,weatherlink.com 1.10,2013-02-15 19:05:00,
2013-02-15 14:20:00,47.9,27.0,30.12,WNW,288,3.0,-999.0,44,-99.99,,,0.00,weatherlink.com 1.10,2013-02-15 19:20:00,
2013-02-15 14:35:00,47.9,27.0,30.12,SW,225,5.0,-999.0,45,-99.99,,,0.00,weatherlink.com 1.10,2013-02-15 19:35:00,
2013-02-15 14:50:00,48.9,28.0,30.11,SSW,208,4.0,-999.0,44,-99.99,,,0.00,weatherlink.com 1.10,2013-02-15 19:50:00,
2013-02-15 15:05:00,46.8,26.0,30.11,SSW,210,3.0,-999.0,45,-99.99,,,0.00,weatherlink.com 1.10,2013-02-15 20:05:00,
2013-02-15 15:20:00,47.4,27.0,30.11,SSW,205,2.0,-999.0,46,-99.99,,,0.00,weatherlink.com 1.10,2013-02-15 20:20:00,
2013-02-15 15:35:00,46.3,26.0,30.11,SSW,205,3.0,-999.0,46,-99.99,,,0.00,weatherlink.com 1.10,2013-02-15 20:35:00,
2013-02-15 15:50:00,48.5,29.0,30.10,SW,230,2.0,-999.0,47,-99.99,,,0.00,weatherlink.com 1.10,2013-02-15 20:50:00,
2013-02-15 16:05:00,49.3,29.0,30.10,SSW,201,1.0,-999.0,45,-99.99,,,0.00,weatherlink.com 1.10,2013-02-15 21:05:00,
2013-02-15 16:20:00,49.4,29.0,30.10,SW,234,7.0,-999.0,45,-99.99,,,0.00,weatherlink.com 1.10,2013-02-15 21:20:00,
2013-02-15 16:35:00,48.5,29.0,30.10,SW,235,5.0,-999.0,47,-99.99,,,0.00,weatherlink.com 1.10,2013-02-15 21:35:00,
2013-02-15 16:50:00,48.2,30.0,30.11,SSW,211,4.0,-999.0,49,-99.99,,,0.00,weatherlink.com 1.10,2013-02-15 21:50:00,
2013-02-15 17:05:00,47.2,29.0,30.11,SSW,199,3.0,-999.0,50,-99.99,,,0.00,weatherlink.com 1.10,2013-02-15 22:05:00,
2013-02-15 17:20:00,45.4,28.0,30.11,SW,229,11.0,-999.0,51,-99.99,,,0.00,weatherlink.com 1.10,2013-02-15 22:20:00,
2013-02-15 17:35:00,44.0,29.0,30.11,SW,233,2.0,-999.0,56,-99.99,,,0.00,weatherlink.com 1.10,2013-02-15 22:35:00,
2013-02-15 17:50:00,43.5,30.0,30.11,SW,231,5.0,-999.0,59,-99.99,,,0.00,weatherlink.com 1.10,2013-02-15 22:50:00,
2013-02-15 18:05:00,43.2,30.0,30.11,WSW,249,1.0,-999.0,61,-99.99,,,0.00,weatherlink.com 1.10,2013-02-15 23:05:00,
2013-02-15 18:20:00,41.6,32.0,30.12,NE,51,6.0,-999.0,70,-99.99,,,0.00,weatherlink.com 1.10,2013-02-15 23:20:00,
2013-02-15 18:35:00,40.6,33.0,30.11,NE,50,4.0,-999.0,75,-99.99,,,0.00,weatherlink.com 1.10,2013-02-15 23:35:00,
2013-02-15 18:50:00,39.9,34.0,30.11,NE,54,5.0,-999.0,79,-99.99,,,0.00,weatherlink.com 1.10,2013-02-15 23:50:00,
2013-02-15 19:05:00,39.5,34.0,30.12,SW,223,3.0,-999.0,81,-99.99,,,0.00,weatherlink.com 1.10,2013-02-16 00:05:00,
2013-02-15 19:20:00,38.9,35.0,30.12,WNW,296,1.0,-999.0,84,-99.99,,,0.00,weatherlink.com 1.10,2013-02-16 00:20:00,
2013-02-15 19:35:00,38.5,34.0,30.12,NNW,338,7.0,-999.0,85,-99.99,,,0.00,weatherlink.com 1.10,2013-02-16 00:35:00,
2013-02-15 19:50:00,37.9,34.0,30.12,North,5,3.0,-999.0,87,-99.99,,,0.00,weatherlink.com 1.10,2013-02-16 00:50:00,
2013-02-15 20:05:00,37.6,34.0,30.11,North,360,4.0,-999.0,88,-99.99,,,0.00,weatherlink.com 1.10,2013-02-16 01:05:00,
2013-02-15 20:20:00,37.0,34.0,30.11,North,5,5.0,-999.0,90,-99.99,,,0.00,weatherlink.com 1.10,2013-02-16 01:20:00,
2013-02-15 20:35:00,35.9,34.0,30.11,NNE,28,4.0,-999.0,91,-99.99,,,0.00,weatherlink.com 1.10,2013-02-16 01:35:00,
2013-02-15 20:50:00,35.0,33.0,30.12,NE,35,4.0,-999.0,92,-99.99,,,0.00,weatherlink.com 1.10,2013-02-16 01:50:00,
2013-02-15 21:05:00,33.6,32.0,30.11,North,9,10.0,-999.0,92,-99.99,,,0.00,weatherlink.com 1.10,2013-02-16 02:05:00,
2013-02-15 21:20:00,32.9,31.0,30.12,NNE,20,7.0,-999.0,93,-99.99,,,0.00,weatherlink.com 1.10,2013-02-16 02:20:00,
2013-02-15 21:35:00,32.9,30.0,30.12,NE,36,10.0,-999.0,90,-99.99,,,0.00,weatherlink.com 1.10,2013-02-16 02:35:00,
2013-02-15 21:50:00,32.8,30.0,30.12,NE,44,3.0,-999.0,90,-99.99,,,0.00,weatherlink.com 1.10,2013-02-16 02:50:00,
2013-02-15 22:05:00,32.9,30.0,30.12,NE,39,6.0,-999.0,88,-99.99,,,0.00,weatherlink.com 1.10,2013-02-16 03:05:00,
2013-02-15 22:20:00,32.8,29.0,30.11,East,79,5.0,-999.0,87,-99.99,,,0.00,weatherlink.com 1.10,2013-02-16 03:20:00,
2013-02-15 22:35:00,32.9,29.0,30.11,NE,55,8.0,-999.0,85,-99.99,,,0.00,weatherlink.com 1.10,2013-02-16 03:35:00,
2013-02-15 22:50:00,32.9,29.0,30.10,NE,38,2.0,-999.0,84,-99.99,,,0.00,weatherlink.com 1.10,2013-02-16 03:50:00,
2013-02-15 23:05:00,32.8,29.0,30.10,ENE,65,6.0,-999.0,84,-99.99,,,0.00,weatherlink.com 1.10,2013-02-16 04:05:00,
2013-02-15 23:20:00,32.4,29.0,30.10,NE,37,4.0,-999.0,86,-99.99,,,0.00,weatherlink.com 1.10,2013-02-16 04:20:00,
2013-02-15 23:35:00,32.1,29.0,30.09,NE,55,4.0,-999.0,87,-99.99,,,0.00,weatherlink.com 1.10,2013-02-16 04:35:00,
2013-02-15 23:50:00,32.1,28.0,30.08,NW,323,6.0,-999.0,86,-99.99,,,0.00,weatherlink.com 1.10,2013-02-16 04:50:00,